createdAt,value
2023-05-19T00:00:21.479Z,53.13
2023-05-19T00:02:53.386Z,53.18
2023-05-19T00:05:25.184Z,53.13
2023-05-19T00:07:57.458Z,53.19
2023-05-19T00:10:31.995Z,53.23
2023-05-19T00:13:04.062Z,53.29
2023-05-19T00:15:36.467Z,53.34
2023-05-19T00:18:09.035Z,53.36
2023-05-19T00:20:39.748Z,53.42
2023-05-19T00:23:10.555Z,53.58
2023-05-19T00:25:41.066Z,53.40
2023-05-19T00:28:11.536Z,53.59
2023-05-19T00:30:42.119Z,53.60
2023-05-19T00:33:12.860Z,53.73
2023-05-19T00:35:43.447Z,53.90
2023-05-19T00:38:13.908Z,54.16
2023-05-19T00:40:44.598Z,54.00
2023-05-19T00:43:15.815Z,54.16
2023-05-19T00:45:47.064Z,54.05
2023-05-19T00:48:17.599Z,53.89
2023-05-19T00:50:48.670Z,54.38
2023-05-19T00:53:20.366Z,54.47
2023-05-19T00:55:51.559Z,54.74
2023-05-19T00:58:23.936Z,54.73
2023-05-19T01:00:56.205Z,54.67
2023-05-19T01:03:26.890Z,54.87
2023-05-19T01:05:57.560Z,55.06
2023-05-19T01:08:28.937Z,55.16
2023-05-19T01:10:59.661Z,55.28
2023-05-19T01:13:31.533Z,55.41
2023-05-19T01:16:07.870Z,55.48
2023-05-19T01:18:48.464Z,55.28
2023-05-19T01:21:51.244Z,55.42
2023-05-19T01:24:57.271Z,55.27
2023-05-19T01:27:43.121Z,55.36
2023-05-19T01:30:30.099Z,55.40
2023-05-19T01:33:04.179Z,55.39
2023-05-19T01:35:36.216Z,55.64
2023-05-19T01:38:09.016Z,55.45
2023-05-19T01:40:41.621Z,55.65
2023-05-19T01:43:16.768Z,55.71
2023-05-19T01:45:48.257Z,55.64
2023-05-19T01:48:19.731Z,55.82
2023-05-19T01:50:50.409Z,55.93
2023-05-19T01:53:21.031Z,55.79
2023-05-19T01:55:58.121Z,55.75
2023-05-19T01:58:38.983Z,55.81
2023-05-19T02:01:17.842Z,55.75
2023-05-19T02:04:03.221Z,55.91
2023-05-19T02:06:43.073Z,55.93
2023-05-19T02:09:23.289Z,55.93
2023-05-19T02:12:02.536Z,55.99
2023-05-19T02:14:39.446Z,56.15
2023-05-19T02:17:13.944Z,56.06
2023-05-19T02:19:45.614Z,55.81
2023-05-19T02:22:16.142Z,56.02
2023-05-19T02:24:47.876Z,56.17
2023-05-19T02:27:18.729Z,56.40
2023-05-19T02:29:49.216Z,56.38
2023-05-19T02:32:20.420Z,56.32
2023-05-19T02:34:51.547Z,56.69
2023-05-19T02:37:23.886Z,56.37
2023-05-19T02:39:54.370Z,56.60
2023-05-19T02:42:24.928Z,56.44
2023-05-19T02:44:56.718Z,56.40
2023-05-19T02:47:27.323Z,56.41
2023-05-19T02:49:57.814Z,56.59
2023-05-19T02:52:28.299Z,56.39
2023-05-19T02:54:58.758Z,56.54
2023-05-19T02:57:31.743Z,56.51
2023-05-19T03:00:02.777Z,56.64
2023-05-19T03:02:34.260Z,56.48
2023-05-19T03:05:05.897Z,56.44
2023-05-19T03:07:36.414Z,56.29
2023-05-19T03:10:09.034Z,56.39
2023-05-19T03:12:39.560Z,56.22
2023-05-19T03:15:13.129Z,56.12
2023-05-19T03:17:43.683Z,56.25
2023-05-19T03:20:16.253Z,56.32
2023-05-19T03:22:46.818Z,56.40
2023-05-19T03:25:17.625Z,56.36
2023-05-19T03:27:48.190Z,56.03
2023-05-19T03:30:19.471Z,56.12
2023-05-19T03:33:07.541Z,56.25
2023-05-19T03:35:38.257Z,56.30
2023-05-19T03:38:09.163Z,56.13
2023-05-19T03:40:41.470Z,56.21
2023-05-19T03:43:13.407Z,56.31
2023-05-19T03:45:49.153Z,56.38
2023-05-19T03:48:38.725Z,56.50
2023-05-19T03:51:21.292Z,56.56
2023-05-19T03:53:53.849Z,56.57
2023-05-19T03:56:26.612Z,57.05
2023-05-19T03:58:57.160Z,56.99
2023-05-19T04:01:27.838Z,56.96
2023-05-19T04:03:58.376Z,57.02
2023-05-19T04:06:29.534Z,56.80
2023-05-19T04:09:00.134Z,56.88
2023-05-19T04:11:30.787Z,56.83
2023-05-19T04:14:01.772Z,57.00
2023-05-19T04:16:32.498Z,56.82
2023-05-19T04:19:03.301Z,56.84
2023-05-19T04:21:33.982Z,56.91
2023-05-19T04:24:06.696Z,56.99
2023-05-19T04:26:38.516Z,57.15
2023-05-19T04:29:10.820Z,57.14
2023-05-19T04:31:42.370Z,56.97
2023-05-19T04:34:13.320Z,56.97
2023-05-19T04:36:44.184Z,57.07
2023-05-19T04:39:14.735Z,56.96
2023-05-19T04:41:46.816Z,56.97
2023-05-19T04:44:18.577Z,56.76
2023-05-19T04:46:54.500Z,56.71
2023-05-19T04:49:49.931Z,57.21
2023-05-19T04:52:21.932Z,57.22
2023-05-19T04:54:52.946Z,56.99
2023-05-19T04:57:23.566Z,57.14
2023-05-19T04:59:59.851Z,56.95
2023-05-19T05:02:32.273Z,56.74
2023-05-19T05:05:04.330Z,56.53
2023-05-19T05:07:35.189Z,56.53
2023-05-19T05:10:07.662Z,56.71
2023-05-19T05:12:39.566Z,56.50
2023-05-19T05:15:10.477Z,56.70
2023-05-19T05:17:42.510Z,56.53
2023-05-19T05:20:15.702Z,56.32
2023-05-19T05:22:47.780Z,56.20
2023-05-19T05:25:21.351Z,56.61
2023-05-19T05:27:52.624Z,56.33
2023-05-19T05:30:23.254Z,56.50
2023-05-19T05:32:54.045Z,56.09
2023-05-19T05:35:33.616Z,56.26
2023-05-19T05:38:05.275Z,56.14
2023-05-19T05:40:35.907Z,56.36
2023-05-19T05:43:06.957Z,56.24
2023-05-19T05:45:40.827Z,56.18
2023-05-19T05:48:13.524Z,55.99
2023-05-19T05:50:46.345Z,56.10
2023-05-19T05:53:21.760Z,56.19
2023-05-19T05:55:55.525Z,56.09
2023-05-19T05:58:32.871Z,56.13
2023-05-19T06:01:03.451Z,56.42
2023-05-19T06:03:34.233Z,56.51
2023-05-19T06:06:08.770Z,56.82
2023-05-19T06:08:39.594Z,56.63
2023-05-19T06:11:10.345Z,56.49
2023-05-19T06:13:42.530Z,56.52
2023-05-19T06:16:17.248Z,56.64
2023-05-19T06:18:50.107Z,56.74
2023-05-19T06:21:21.916Z,56.48
2023-05-19T06:23:52.455Z,56.47
2023-05-19T06:26:23.009Z,56.44
2023-05-19T06:28:53.623Z,56.89
2023-05-19T06:31:26.556Z,56.89
2023-05-19T06:34:00.069Z,57.03
2023-05-19T06:36:31.457Z,57.00
2023-05-19T06:39:02.884Z,57.28
2023-05-19T06:41:34.680Z,57.12
2023-05-19T06:44:07.883Z,57.01
2023-05-19T06:46:38.472Z,57.38
2023-05-19T06:49:09.518Z,57.19
2023-05-19T06:51:42.037Z,57.45
2023-05-19T06:54:16.330Z,57.43
2023-05-19T06:56:46.905Z,57.70
2023-05-19T06:59:21.898Z,57.65
2023-05-19T07:01:53.046Z,57.51
2023-05-19T07:04:24.168Z,57.24
2023-05-19T07:06:55.105Z,57.33
2023-05-19T07:09:25.809Z,57.56
2023-05-19T07:11:56.660Z,57.56
2023-05-19T07:14:27.625Z,57.29
2023-05-19T07:16:58.453Z,57.36
2023-05-19T07:19:29.082Z,57.18
2023-05-19T07:21:59.969Z,57.26
2023-05-19T07:24:31.553Z,57.22
2023-05-19T07:27:02.311Z,57.07
2023-05-19T07:29:32.860Z,57.31
2023-05-19T07:32:51.528Z,57.33
2023-05-19T07:35:22.992Z,57.28
2023-05-19T07:37:54.160Z,57.30
2023-05-19T07:40:24.788Z,57.25
2023-05-19T07:42:55.339Z,57.05
2023-05-19T07:45:25.910Z,57.09
2023-05-19T07:47:57.297Z,57.18
2023-05-19T07:50:28.246Z,57.12
2023-05-19T07:52:59.074Z,57.11
2023-05-19T07:55:29.578Z,57.21
2023-05-19T07:58:00.114Z,57.06
2023-05-19T08:00:31.003Z,57.16
2023-05-19T08:03:03.214Z,57.45
2023-05-19T08:05:34.120Z,57.51
2023-05-19T08:08:04.981Z,57.77
2023-05-19T08:10:35.728Z,57.80
2023-05-19T08:13:06.466Z,58.19
2023-05-19T08:15:37.057Z,58.18
2023-05-19T08:18:08.058Z,58.07
2023-05-19T08:20:39.576Z,58.04
2023-05-19T08:23:10.120Z,58.30
2023-05-19T08:25:40.846Z,58.21
2023-05-19T08:28:11.471Z,58.32
2023-05-19T08:30:42.101Z,58.08
2023-05-19T08:33:12.667Z,57.83
2023-05-19T08:35:44.590Z,57.58
2023-05-19T08:38:15.240Z,57.47
2023-05-19T08:40:48.471Z,57.24
2023-05-19T08:43:19.118Z,57.13
2023-05-19T08:45:50.105Z,57.28
2023-05-19T08:48:22.771Z,57.07
2023-05-19T08:51:07.081Z,56.93
2023-05-19T08:53:44.012Z,56.81
2023-05-19T08:56:17.550Z,56.57
2023-05-19T08:58:50.482Z,56.24
2023-05-19T09:01:23.474Z,56.20
2023-05-19T09:03:54.622Z,56.08
2023-05-19T09:06:26.570Z,56.05
2023-05-19T09:08:57.302Z,56.09
2023-05-19T09:11:28.368Z,56.09
2023-05-19T09:13:58.900Z,56.22
2023-05-19T09:16:30.425Z,55.95
2023-05-19T09:19:01.725Z,56.22
2023-05-19T09:21:32.984Z,56.40
2023-05-19T09:24:08.931Z,56.59
2023-05-19T09:26:43.937Z,56.81
2023-05-19T09:29:16.492Z,56.52
2023-05-19T09:31:52.546Z,56.42
2023-05-19T09:34:25.154Z,56.51
2023-05-19T09:36:57.808Z,56.22
2023-05-19T09:39:29.052Z,56.29
2023-05-19T09:41:59.692Z,56.05
2023-05-19T09:44:30.704Z,55.75
2023-05-19T09:47:02.336Z,55.64
2023-05-19T09:49:33.954Z,55.54
2023-05-19T09:52:06.138Z,55.35
2023-05-19T09:54:37.415Z,55.16
2023-05-19T09:57:09.016Z,55.27
2023-05-19T09:59:39.998Z,55.14
2023-05-19T10:02:16.256Z,55.02
2023-05-19T10:04:47.720Z,55.16
2023-05-19T10:07:19.105Z,54.94
2023-05-19T10:09:51.319Z,55.08
2023-05-19T10:12:23.058Z,54.98
2023-05-19T10:14:54.917Z,54.88
2023-05-19T10:17:28.519Z,54.79
2023-05-19T10:20:00.551Z,54.94
2023-05-19T10:22:31.328Z,54.71
2023-05-19T10:25:01.986Z,54.41
2023-05-19T10:27:34.018Z,54.22
2023-05-19T10:30:12.110Z,54.36
2023-05-19T10:32:46.615Z,54.59
2023-05-19T10:36:11.296Z,54.64
2023-05-19T10:38:49.741Z,54.72
2023-05-19T10:41:28.252Z,54.79
2023-05-19T10:44:10.667Z,54.71
2023-05-19T10:46:43.204Z,54.66
2023-05-19T10:49:23.287Z,54.81
2023-05-19T10:51:56.896Z,54.88
2023-05-19T10:54:43.359Z,54.92
2023-05-19T10:57:18.557Z,54.90
2023-05-19T10:59:50.041Z,54.73
2023-05-19T11:02:42.972Z,54.73
2023-05-19T11:05:16.814Z,54.86
2023-05-19T11:08:02.232Z,54.89
2023-05-19T11:10:33.596Z,55.10
2023-05-19T11:13:06.489Z,55.36
2023-05-19T11:15:38.670Z,55.82
2023-05-19T11:18:07.725Z,55.99
2023-05-19T11:20:41.566Z,56.50
2023-05-19T11:23:17.959Z,56.91
2023-05-19T11:25:51.206Z,57.22
2023-05-19T11:28:26.239Z,57.56
2023-05-19T11:31:00.103Z,57.76
2023-05-19T11:33:33.275Z,57.93
2023-05-19T11:36:04.011Z,58.06
2023-05-19T11:38:35.973Z,57.89
2023-05-19T11:41:06.865Z,57.60
2023-05-19T11:43:37.491Z,57.18
2023-05-19T11:46:09.086Z,57.25
2023-05-19T11:48:39.651Z,57.51
2023-05-19T11:51:10.331Z,57.23
2023-05-19T11:53:40.886Z,56.87
2023-05-19T11:56:12.781Z,56.85
2023-05-19T11:58:43.827Z,57.10
2023-05-19T12:01:14.458Z,57.33
2023-05-19T12:03:45.031Z,57.56
2023-05-19T12:06:17.580Z,57.74
2023-05-19T12:08:48.261Z,57.43
2023-05-19T12:11:20.065Z,57.31
2023-05-19T12:13:54.679Z,57.25
2023-05-19T12:16:26.126Z,57.29
2023-05-19T12:18:57.976Z,57.22
2023-05-19T12:21:34.119Z,57.18
2023-05-19T12:24:06.687Z,57.02
2023-05-19T12:26:38.183Z,57.16
2023-05-19T12:29:09.265Z,56.87
2023-05-19T12:31:40.455Z,57.08
2023-05-19T12:34:13.434Z,57.13
2023-05-19T12:36:44.996Z,57.40
2023-05-19T12:39:15.671Z,57.19
2023-05-19T12:41:48.667Z,56.87
2023-05-19T12:44:19.531Z,56.99
2023-05-19T12:46:54.575Z,57.01
2023-05-19T12:49:25.115Z,57.16
2023-05-19T12:51:56.798Z,57.16
2023-05-19T12:54:27.412Z,57.16
2023-05-19T12:57:00.750Z,57.04
2023-05-19T12:59:38.790Z,56.87
2023-05-19T13:02:09.957Z,57.00
2023-05-19T13:04:40.609Z,57.00
2023-05-19T13:07:11.179Z,56.91
2023-05-19T13:09:42.345Z,56.88
2023-05-19T13:12:13.035Z,57.01
2023-05-19T13:14:44.440Z,56.82
2023-05-19T13:17:14.971Z,56.75
2023-05-19T13:19:45.621Z,56.84
2023-05-19T13:22:16.125Z,56.95
2023-05-19T13:24:46.641Z,56.77
2023-05-19T13:27:17.287Z,56.76
2023-05-19T13:29:47.852Z,56.82
2023-05-19T13:32:18.366Z,56.92
2023-05-19T13:34:49.093Z,56.90
2023-05-19T13:37:19.848Z,57.03
2023-05-19T13:39:50.456Z,57.09
2023-05-19T13:42:20.977Z,57.11
2023-05-19T13:44:55.160Z,57.16
2023-05-19T13:47:26.397Z,57.38
2023-05-19T13:49:57.359Z,57.84
2023-05-19T13:52:29.093Z,57.78
2023-05-19T13:55:00.966Z,57.47
2023-05-19T13:57:31.740Z,57.75
2023-05-19T14:00:04.598Z,57.55
2023-05-19T14:02:44.827Z,57.43
2023-05-19T14:05:15.635Z,57.29
2023-05-19T14:07:46.368Z,57.25
2023-05-19T14:10:16.910Z,57.27
2023-05-19T14:13:14.121Z,57.47
2023-05-19T14:15:38.587Z,57.47
2023-05-19T14:18:09.150Z,57.47
2023-05-19T14:20:39.777Z,57.39
2023-05-19T14:23:10.286Z,57.29
2023-05-19T14:25:41.513Z,57.50
2023-05-19T14:28:12.078Z,57.66
2023-05-19T14:30:42.601Z,57.58
2023-05-19T14:33:13.227Z,57.54
2023-05-19T14:35:43.796Z,57.35
2023-05-19T14:38:14.399Z,57.36
2023-05-19T14:40:44.984Z,57.21
2023-05-19T14:43:15.555Z,57.17
2023-05-19T14:45:46.555Z,57.05
2023-05-19T14:48:17.330Z,57.08
2023-05-19T14:50:49.220Z,57.07
2023-05-19T14:53:18.254Z,57.17
2023-05-19T14:55:50.068Z,57.29
2023-05-19T14:58:28.900Z,57.26
2023-05-19T15:01:01.746Z,57.28
2023-05-19T15:03:32.490Z,57.27
2023-05-19T15:06:03.461Z,57.43
2023-05-19T15:08:33.980Z,57.57
2023-05-19T15:11:04.466Z,57.64
2023-05-19T15:13:35.409Z,57.52
2023-05-19T15:16:17.474Z,57.64
2023-05-19T15:18:48.948Z,57.46
2023-05-19T15:21:19.541Z,57.43
2023-05-19T15:23:50.074Z,57.38
2023-05-19T15:26:21.089Z,57.39
2023-05-19T15:28:53.042Z,57.42
2023-05-19T15:31:23.807Z,57.23
2023-05-19T15:33:54.421Z,57.10
2023-05-19T15:36:25.037Z,56.94
2023-05-19T15:38:55.566Z,56.82
2023-05-19T15:41:26.852Z,56.90
2023-05-19T15:43:57.335Z,57.08
2023-05-19T15:46:28.008Z,57.15
2023-05-19T15:48:58.641Z,57.26
2023-05-19T15:51:29.330Z,57.22
2023-05-19T15:53:59.808Z,57.17
2023-05-19T15:56:30.442Z,57.29
2023-05-19T15:59:00.916Z,57.38
2023-05-19T16:01:31.551Z,57.51
2023-05-19T16:04:03.773Z,57.49
2023-05-19T16:06:34.655Z,57.31
2023-05-19T16:09:05.287Z,57.12
2023-05-19T16:11:35.834Z,57.17
2023-05-19T16:14:06.794Z,57.19
2023-05-19T16:16:37.506Z,57.05
2023-05-19T16:19:08.265Z,56.89
2023-05-19T16:21:38.985Z,57.14
2023-05-19T16:24:09.853Z,56.97
2023-05-19T16:26:40.360Z,56.99
2023-05-19T16:29:11.005Z,56.99
2023-05-19T16:31:41.523Z,57.12
2023-05-19T16:34:12.123Z,57.37
2023-05-19T16:36:42.650Z,57.16
2023-05-19T16:39:13.479Z,57.23
2023-05-19T16:41:43.969Z,57.29
2023-05-19T16:44:14.744Z,57.16
2023-05-19T16:46:45.319Z,57.33
2023-05-19T16:49:16.205Z,57.27
2023-05-19T16:51:48.275Z,57.19
2023-05-19T16:54:20.300Z,57.27
2023-05-19T16:56:51.172Z,57.47
2023-05-19T16:59:21.848Z,57.34
2023-05-19T17:06:05.386Z,57.55
2023-05-19T17:08:36.392Z,57.45
2023-05-19T17:11:07.402Z,57.31
2023-05-19T17:13:37.905Z,57.22
2023-05-19T17:16:09.013Z,57.14
2023-05-19T17:18:39.535Z,57.17
2023-05-19T17:21:10.515Z,57.26
2023-05-19T17:23:41.604Z,57.29
2023-05-19T17:26:12.201Z,57.30
2023-05-19T17:28:42.757Z,57.35
2023-05-19T17:31:14.248Z,57.48
2023-05-19T17:33:45.009Z,57.45
2023-05-19T17:36:15.698Z,57.42
2023-05-19T17:38:46.479Z,57.52
2023-05-19T17:41:16.950Z,57.22
2023-05-19T17:43:47.461Z,57.34
2023-05-19T17:46:17.989Z,57.22
2023-05-19T17:48:48.482Z,57.20
2023-05-19T17:51:19.321Z,57.17
2023-05-19T17:53:50.821Z,57.29
2023-05-19T17:56:23.831Z,57.41
2023-05-19T17:58:55.420Z,57.49
2023-05-19T18:01:27.232Z,57.42
2023-05-19T18:03:56.877Z,57.56
2023-05-19T18:06:29.309Z,57.60
2023-05-19T18:09:01.942Z,57.77
2023-05-19T18:11:32.627Z,57.84
2023-05-19T18:14:03.324Z,58.03
2023-05-19T18:16:34.313Z,58.13
2023-05-19T18:19:05.677Z,58.00
2023-05-19T18:21:36.239Z,57.99
2023-05-19T18:24:07.368Z,57.89
2023-05-19T18:26:41.848Z,57.89
2023-05-19T18:29:14.597Z,57.83
2023-05-19T18:31:45.294Z,57.77
2023-05-19T18:34:15.900Z,57.80
2023-05-19T18:36:46.439Z,57.78
2023-05-19T18:39:16.916Z,57.65
2023-05-19T18:41:47.612Z,57.63
2023-05-19T18:44:18.177Z,57.53
2023-05-19T18:46:49.764Z,57.65
2023-05-19T18:49:21.071Z,57.65
2023-05-19T18:51:51.652Z,57.74
2023-05-19T18:54:22.537Z,57.73
2023-05-19T18:56:53.057Z,57.75
2023-05-19T18:59:25.864Z,57.98
2023-05-19T19:01:57.304Z,57.95
2023-05-19T19:04:27.912Z,58.00
2023-05-19T19:06:58.430Z,58.08
2023-05-19T19:09:29.042Z,58.08
2023-05-19T19:11:59.872Z,58.16
2023-05-19T19:14:30.611Z,58.28
2023-05-19T19:17:01.161Z,58.39
2023-05-19T19:19:32.008Z,58.47
2023-05-19T19:22:02.725Z,58.36
2023-05-19T19:24:33.198Z,58.33
2023-05-19T19:27:04.095Z,58.42
2023-05-19T19:29:34.566Z,58.39
2023-05-19T19:32:05.389Z,58.48
2023-05-19T19:34:36.397Z,58.54
2023-05-19T19:37:07.086Z,58.56
2023-05-19T19:39:38.117Z,58.63
2023-05-19T19:42:08.908Z,58.64
2023-05-19T19:44:39.439Z,58.68
2023-05-19T19:47:10.074Z,58.72
2023-05-19T19:49:40.676Z,58.83
2023-05-19T19:52:11.174Z,58.90
2023-05-19T19:54:42.263Z,58.98
2023-05-19T19:57:12.735Z,59.00
2023-05-19T19:59:43.432Z,58.95
2023-05-19T20:02:13.993Z,59.03
2023-05-19T20:04:44.605Z,59.20
2023-05-19T20:07:15.327Z,59.28
2023-05-19T20:09:45.806Z,59.27
2023-05-19T20:12:16.296Z,59.22
2023-05-19T20:14:47.739Z,59.38
2023-05-19T20:17:18.339Z,59.52
2023-05-19T20:19:48.922Z,59.57
2023-05-19T20:22:19.577Z,59.36
2023-05-19T20:24:50.088Z,59.51
2023-05-19T20:27:20.711Z,59.62
2023-05-19T20:29:51.393Z,59.75
2023-05-19T20:32:21.940Z,59.80
2023-05-19T20:34:52.431Z,59.81
2023-05-19T20:37:23.233Z,59.83
2023-05-19T20:39:53.908Z,60.05
2023-05-19T20:42:24.474Z,59.90
2023-05-19T20:44:55.851Z,59.97
2023-05-19T20:47:28.310Z,60.01
2023-05-19T20:50:00.435Z,59.94
2023-05-19T20:52:32.327Z,59.89
2023-05-19T20:55:02.819Z,59.94
2023-05-19T20:57:33.330Z,59.95
2023-05-19T21:00:04.016Z,59.94
2023-05-19T21:02:34.481Z,59.95
2023-05-19T21:05:05.808Z,59.99
2023-05-19T21:07:36.340Z,60.01
2023-05-19T21:10:08.462Z,60.04
2023-05-19T21:12:38.974Z,60.09
2023-05-19T21:15:11.487Z,60.07
2023-05-19T21:17:42.418Z,60.04
2023-05-19T21:20:14.613Z,60.09
2023-05-19T21:22:45.170Z,60.17
2023-05-19T21:25:17.143Z,60.22
2023-05-19T21:27:47.637Z,60.36
2023-05-19T21:30:18.167Z,60.40
2023-05-19T21:32:48.714Z,60.59
2023-05-19T21:35:19.532Z,60.53
2023-05-19T21:37:50.515Z,60.56
2023-05-19T21:40:21.432Z,60.61
2023-05-19T21:42:52.052Z,60.74
2023-05-19T21:45:22.548Z,60.81
2023-05-19T21:47:53.124Z,60.86
2023-05-19T21:50:23.681Z,60.93
2023-05-19T21:52:54.177Z,61.01
2023-05-19T21:55:24.883Z,61.13
2023-05-19T21:57:55.439Z,60.96
2023-05-19T22:00:25.990Z,61.04
2023-05-19T22:02:56.624Z,61.03
2023-05-19T22:05:27.427Z,61.06
2023-05-19T22:07:58.050Z,61.05
2023-05-19T22:10:28.545Z,61.14
2023-05-19T22:12:59.416Z,61.20
2023-05-19T22:15:29.878Z,61.18
2023-05-19T22:18:00.517Z,61.26
2023-05-19T22:20:31.550Z,61.27
2023-05-19T22:23:03.807Z,61.45
2023-05-19T22:25:34.521Z,61.30
2023-05-19T22:28:07.538Z,61.48
2023-05-19T22:30:41.125Z,61.54
2023-05-19T22:33:13.264Z,61.61
2023-05-19T22:35:44.229Z,61.58
2023-05-19T22:38:14.738Z,61.70
2023-05-19T22:40:45.895Z,61.72
2023-05-19T22:43:16.414Z,61.67
2023-05-19T22:45:47.221Z,61.74
2023-05-19T22:48:17.951Z,61.70
2023-05-19T22:50:48.849Z,61.66
2023-05-19T22:53:19.321Z,61.63
2023-05-19T22:55:49.855Z,61.69
2023-05-19T22:58:20.375Z,61.66
2023-05-19T23:00:50.882Z,61.69
2023-05-19T23:03:21.429Z,61.63
2023-05-19T23:05:51.914Z,61.77
2023-05-19T23:08:22.436Z,61.68
2023-05-19T23:11:03.313Z,61.77
2023-05-19T23:13:33.973Z,61.77
2023-05-19T23:16:06.735Z,61.81
2023-05-19T23:18:37.209Z,61.80
2023-05-19T23:21:07.775Z,61.85
2023-05-19T23:23:38.554Z,61.91
2023-05-19T23:26:09.259Z,61.95
2023-05-19T23:28:42.350Z,61.88
2023-05-19T23:31:12.994Z,61.91
2023-05-19T23:33:43.632Z,61.99
2023-05-19T23:36:14.850Z,61.88
2023-05-19T23:38:45.410Z,61.79
2023-05-19T23:41:16.046Z,61.70
2023-05-19T23:43:46.673Z,61.72
2023-05-19T23:46:17.323Z,61.63
2023-05-19T23:48:48.210Z,61.61
2023-05-19T23:51:18.806Z,61.62
2023-05-19T23:53:49.291Z,61.56
2023-05-19T23:56:19.778Z,61.59
2023-05-19T23:58:50.293Z,61.59
